createdAt,value
2019-05-05T00:02:05.577Z,79.49
2019-05-05T00:05:01.855Z,79.47
2019-05-05T00:07:34.903Z,79.39
2019-05-05T00:10:10.723Z,79.06
2019-05-05T00:13:01.786Z,78.93
2019-05-05T00:15:51.404Z,79.00
2019-05-05T00:18:25.323Z,78.82
2019-05-05T00:20:56.590Z,78.53
2019-05-05T00:23:27.920Z,78.47
2019-05-05T00:25:59.224Z,78.40
2019-05-05T00:28:30.523Z,78.33
2019-05-05T00:31:01.826Z,78.38
2019-05-05T00:33:34.380Z,78.46
2019-05-05T00:36:07.867Z,78.45
2019-05-05T00:38:38.559Z,78.41
2019-05-05T00:41:09.907Z,78.48
2019-05-05T00:43:41.175Z,78.42
2019-05-05T00:46:19.067Z,78.56
2019-05-05T00:48:50.282Z,78.63
2019-05-05T00:51:21.529Z,78.50
2019-05-05T00:53:52.781Z,78.38
2019-05-05T00:56:25.016Z,78.30
2019-05-05T00:59:00.199Z,78.32
2019-05-05T01:01:59.416Z,78.39
2019-05-05T01:04:38.696Z,78.42
2019-05-05T01:07:09.953Z,78.44
2019-05-05T01:09:42.287Z,78.51
2019-05-05T01:12:14.918Z,78.85
2019-05-05T01:14:46.251Z,79.12
2019-05-05T01:17:17.497Z,79.26
2019-05-05T01:20:00.284Z,79.28
2019-05-05T01:22:21.689Z,79.38
2019-05-05T01:24:55.209Z,79.54
2019-05-05T01:27:25.906Z,79.58
2019-05-05T01:29:57.142Z,79.84
2019-05-05T01:32:32.461Z,79.94
2019-05-05T01:35:05.385Z,80.09
2019-05-05T01:37:41.916Z,80.22
2019-05-05T01:40:41.656Z,80.26
2019-05-05T01:43:14.635Z,80.31
2019-05-05T01:45:45.985Z,80.39
2019-05-05T01:48:17.339Z,80.41
2019-05-05T01:50:48.689Z,80.52
2019-05-05T01:53:19.980Z,80.65
2019-05-05T01:55:51.601Z,80.58
2019-05-05T01:58:24.450Z,80.44
2019-05-05T02:00:55.817Z,80.32
2019-05-05T02:03:27.219Z,80.33
2019-05-05T02:05:58.719Z,80.31
2019-05-05T02:08:29.998Z,80.30
2019-05-05T02:11:01.321Z,80.17
2019-05-05T02:13:34.485Z,80.03
2019-05-05T02:16:05.568Z,79.87
2019-05-05T02:18:36.868Z,79.75
2019-05-05T02:21:09.657Z,79.65
2019-05-05T02:23:40.952Z,79.48
2019-05-05T02:26:12.266Z,79.33
2019-05-05T02:28:54.290Z,79.17
2019-05-05T02:31:47.632Z,78.79
2019-05-05T02:34:18.945Z,78.67
2019-05-05T02:36:50.214Z,78.13
2019-05-05T02:39:21.489Z,78.11
2019-05-05T02:41:54.798Z,78.08
2019-05-05T02:44:28.545Z,77.95
2019-05-05T02:47:44.959Z,77.95
2019-05-05T02:50:15.813Z,78.09
2019-05-05T02:52:48.493Z,78.13
2019-05-05T02:55:23.478Z,77.80
2019-05-05T02:57:56.447Z,77.56
2019-05-05T03:00:45.650Z,77.54
2019-05-05T03:03:17.056Z,77.94
2019-05-05T03:05:48.551Z,78.36
2019-05-05T03:08:19.908Z,78.37
2019-05-05T03:10:53.600Z,78.71
2019-05-05T03:13:25.724Z,79.02
2019-05-05T03:16:18.019Z,78.85
2019-05-05T03:18:50.616Z,78.57
2019-05-05T03:21:24.249Z,78.34
2019-05-05T03:23:56.540Z,78.04
2019-05-05T03:26:29.236Z,77.74
2019-05-05T03:29:02.373Z,77.46
2019-05-05T03:31:35.156Z,77.50
2019-05-05T03:34:06.884Z,77.69
2019-05-05T03:36:38.190Z,77.67
2019-05-05T03:39:11.616Z,77.46
2019-05-05T03:41:51.842Z,77.44
2019-05-05T03:44:27.006Z,77.61
2019-05-05T03:46:58.333Z,77.71
2019-05-05T03:49:31.228Z,77.77
2019-05-05T03:52:04.836Z,77.77
2019-05-05T03:54:36.754Z,77.91
2019-05-05T03:57:11.128Z,78.09
2019-05-05T03:59:45.015Z,78.21
2019-05-05T04:02:25.167Z,78.19
2019-05-05T04:04:58.393Z,78.12
2019-05-05T04:07:29.702Z,78.22
2019-05-05T04:10:01.119Z,78.34
2019-05-05T04:12:34.564Z,78.50
2019-05-05T04:15:06.614Z,78.64
2019-05-05T04:17:46.857Z,78.78
2019-05-05T04:20:38.708Z,79.07
2019-05-05T04:23:10.019Z,79.40
2019-05-05T04:25:41.321Z,79.65
2019-05-05T04:28:13.656Z,79.67
2019-05-05T04:30:45.080Z,79.64
2019-05-05T04:33:16.385Z,79.56
2019-05-05T04:35:47.679Z,79.38
2019-05-05T04:38:18.996Z,79.20
2019-05-05T04:40:50.313Z,78.98
2019-05-05T04:43:21.579Z,78.95
2019-05-05T04:45:54.114Z,78.87
2019-05-05T04:48:34.919Z,78.93
2019-05-05T04:51:16.876Z,78.96
2019-05-05T04:54:09.940Z,78.99
2019-05-05T04:56:41.217Z,78.86
2019-05-05T04:59:14.314Z,78.55
2019-05-05T05:01:47.010Z,78.45
2019-05-05T05:04:26.984Z,78.54
2019-05-05T05:06:58.932Z,78.73
2019-05-05T05:09:30.273Z,78.85
2019-05-05T05:12:01.533Z,78.82
2019-05-05T05:14:33.706Z,79.01
2019-05-05T05:17:08.343Z,78.69
2019-05-05T05:19:39.670Z,78.76
2019-05-05T05:22:10.950Z,78.60
2019-05-05T05:24:42.238Z,78.46
2019-05-05T05:27:13.930Z,77.91
2019-05-05T05:29:45.218Z,77.72
2019-05-05T05:32:16.511Z,77.29
2019-05-05T05:34:47.790Z,77.05
2019-05-05T05:37:19.076Z,76.86
2019-05-05T05:39:56.729Z,76.37
2019-05-05T05:42:28.000Z,75.63
2019-05-05T05:45:34.296Z,74.62
2019-05-05T05:48:20.062Z,74.51
2019-05-05T05:50:56.347Z,74.36
2019-05-05T05:53:27.638Z,74.27
2019-05-05T05:55:58.927Z,73.59
2019-05-05T05:58:30.263Z,73.47
2019-05-05T06:01:01.575Z,73.45
2019-05-05T06:03:33.917Z,73.10
2019-05-05T06:06:05.323Z,73.12
2019-05-05T06:08:36.603Z,72.92
2019-05-05T06:11:07.921Z,72.95
2019-05-05T06:13:39.209Z,72.88
2019-05-05T06:16:10.495Z,72.96
2019-05-05T06:18:43.597Z,72.93
2019-05-05T06:21:14.802Z,72.55
2019-05-05T06:23:46.052Z,72.65
2019-05-05T06:26:17.355Z,73.18
2019-05-05T06:28:51.202Z,73.80
2019-05-05T06:31:24.445Z,73.90
2019-05-05T06:33:55.519Z,73.52
2019-05-05T06:36:26.786Z,73.98
2019-05-05T06:38:58.090Z,73.07
2019-05-05T06:41:35.182Z,73.35
2019-05-05T06:44:19.198Z,73.54
2019-05-05T06:47:18.160Z,73.32
2019-05-05T06:49:49.456Z,72.67
2019-05-05T06:52:20.743Z,73.14
2019-05-05T06:54:54.155Z,73.25
2019-05-05T06:57:25.091Z,73.56
2019-05-05T06:59:56.316Z,74.04
2019-05-05T07:02:27.603Z,74.16
2019-05-05T07:04:58.821Z,74.30
2019-05-05T07:07:30.102Z,74.66
2019-05-05T07:10:03.637Z,74.98
2019-05-05T07:12:34.779Z,74.91
2019-05-05T07:15:06.263Z,75.02
2019-05-05T07:17:37.576Z,74.87
2019-05-05T07:20:09.228Z,74.71
2019-05-05T07:22:40.540Z,74.23
2019-05-05T07:25:13.828Z,74.36
2019-05-05T07:27:45.145Z,73.98
2019-05-05T07:30:16.906Z,74.01
2019-05-05T07:32:48.224Z,74.01
2019-05-05T07:35:55.976Z,73.86
2019-05-05T07:38:17.240Z,73.20
2019-05-05T07:40:48.501Z,72.99
2019-05-05T07:43:19.748Z,72.74
2019-05-05T07:45:51.044Z,72.00
2019-05-05T07:48:24.176Z,71.19
2019-05-05T07:51:01.488Z,70.85
2019-05-05T07:53:28.237Z,69.90
2019-05-05T07:55:59.501Z,68.13
2019-05-05T07:58:30.808Z,66.43
2019-05-05T08:01:02.134Z,64.84
2019-05-05T08:03:33.932Z,63.18
2019-05-05T08:06:05.347Z,62.67
2019-05-05T08:08:36.691Z,60.25
2019-05-05T08:11:07.974Z,58.79
2019-05-05T08:13:39.312Z,57.46
2019-05-05T08:16:20.203Z,55.94
2019-05-05T08:19:13.782Z,54.30
2019-05-05T08:21:45.165Z,52.53
2019-05-05T08:24:26.028Z,53.13
2019-05-05T08:27:14.630Z,51.66
2019-05-05T08:29:49.894Z,51.61
2019-05-05T08:32:27.041Z,50.97
2019-05-05T08:35:00.985Z,52.65
2019-05-05T08:37:31.317Z,52.68
2019-05-05T08:40:04.311Z,52.51
2019-05-05T08:42:35.735Z,52.95
2019-05-05T08:45:08.069Z,53.89
2019-05-05T08:47:39.416Z,55.25
2019-05-05T08:50:13.576Z,54.56
2019-05-05T08:52:44.545Z,54.89
2019-05-05T08:55:15.818Z,56.87
2019-05-05T08:57:47.112Z,56.09
2019-05-05T09:00:18.672Z,57.15
2019-05-05T09:02:50.072Z,56.64
2019-05-05T09:05:23.676Z,56.57
2019-05-05T09:07:54.878Z,57.81
2019-05-05T09:10:26.228Z,56.46
2019-05-05T09:12:57.609Z,57.03
2019-05-05T09:15:28.917Z,56.84
2019-05-05T09:18:00.232Z,55.80
2019-05-05T09:20:31.584Z,57.06
2019-05-05T09:23:04.175Z,56.71
2019-05-05T09:25:54.547Z,56.04
2019-05-05T09:28:44.546Z,54.65
2019-05-05T09:31:15.894Z,55.40
2019-05-05T09:33:47.305Z,52.45
2019-05-05T09:36:18.602Z,48.48
2019-05-05T09:38:49.958Z,47.02
2019-05-05T09:41:23.375Z,43.79
2019-05-05T09:43:54.236Z,41.22
2019-05-05T09:46:25.717Z,40.44
2019-05-05T09:48:57.019Z,38.28
2019-05-05T09:51:28.300Z,37.86
2019-05-05T09:54:10.963Z,38.20
2019-05-05T09:56:33.932Z,38.78
2019-05-05T09:59:05.392Z,41.39
2019-05-05T10:01:36.688Z,44.90
2019-05-05T10:04:09.062Z,47.52
2019-05-05T10:06:40.890Z,49.30
2019-05-05T10:09:13.784Z,51.32
2019-05-05T10:11:45.232Z,52.93
2019-05-05T10:14:16.639Z,54.17
2019-05-05T10:16:47.925Z,54.74
2019-05-05T10:19:19.238Z,55.66
2019-05-05T10:21:50.541Z,56.09
2019-05-05T10:24:30.627Z,56.59
2019-05-05T10:26:59.862Z,56.89
2019-05-05T10:29:31.191Z,57.77
2019-05-05T10:32:04.516Z,58.29
2019-05-05T10:34:35.504Z,57.86
2019-05-05T10:37:06.794Z,57.35
2019-05-05T10:39:43.964Z,56.50
2019-05-05T10:42:15.396Z,56.53
2019-05-05T10:44:46.671Z,55.33
2019-05-05T10:47:18.073Z,55.01
2019-05-05T10:49:49.414Z,53.75
2019-05-05T10:52:20.683Z,52.08
2019-05-05T10:54:51.962Z,51.22
2019-05-05T10:57:23.698Z,49.63
2019-05-05T10:59:54.829Z,49.72
2019-05-05T11:02:26.098Z,50.18
2019-05-05T11:04:57.411Z,49.22
2019-05-05T11:07:28.756Z,49.21
2019-05-05T11:10:00.077Z,49.61
2019-05-05T11:12:31.310Z,49.60
2019-05-05T11:15:04.092Z,49.58
2019-05-05T11:17:35.406Z,49.72
2019-05-05T11:20:06.968Z,48.25
2019-05-05T11:22:38.166Z,47.15
2019-05-05T11:25:09.383Z,44.03
2019-05-05T11:27:40.574Z,43.67
2019-05-05T11:30:19.941Z,42.09
2019-05-05T11:33:08.773Z,43.14
2019-05-05T11:36:08.116Z,44.38
2019-05-05T11:38:41.394Z,41.91
2019-05-05T11:41:14.429Z,41.35
2019-05-05T11:43:45.410Z,39.20
2019-05-05T11:46:16.719Z,37.47
2019-05-05T11:48:48.049Z,38.23
2019-05-05T11:51:19.302Z,38.38
2019-05-05T11:53:50.575Z,37.56
2019-05-05T11:56:21.843Z,37.56
2019-05-05T11:58:54.668Z,36.41
2019-05-05T12:01:26.795Z,36.20
2019-05-05T12:03:58.070Z,34.01
2019-05-05T12:06:29.332Z,34.88
2019-05-05T12:09:03.070Z,37.83
2019-05-05T12:11:34.558Z,40.09
2019-05-05T12:14:07.878Z,42.02
2019-05-05T12:16:39.336Z,44.30
2019-05-05T12:19:13.782Z,46.34
2019-05-05T12:21:45.144Z,49.03
2019-05-05T12:24:24.876Z,52.29
2019-05-05T12:27:14.162Z,55.15
2019-05-05T12:29:54.601Z,57.01
2019-05-05T12:32:25.959Z,59.83
2019-05-05T12:34:57.269Z,60.74
2019-05-05T12:37:28.577Z,58.34
2019-05-05T12:40:00.089Z,60.75
2019-05-05T12:42:31.385Z,61.00
2019-05-05T12:45:05.983Z,58.38
2019-05-05T12:47:59.196Z,56.88
2019-05-05T12:50:30.598Z,58.51
2019-05-05T12:53:03.951Z,59.33
2019-05-05T12:55:41.437Z,56.00
2019-05-05T12:58:07.979Z,53.91
2019-05-05T13:00:40.944Z,51.88
2019-05-05T13:03:13.495Z,51.60
2019-05-05T13:05:44.839Z,53.31
2019-05-05T13:08:16.143Z,52.67
2019-05-05T13:10:47.422Z,52.03
2019-05-05T13:13:18.760Z,53.13
2019-05-05T13:15:50.081Z,52.64
2019-05-05T13:18:21.356Z,51.47
2019-05-05T13:21:04.126Z,51.96
2019-05-05T13:24:05.823Z,53.08
2019-05-05T13:26:44.597Z,52.67
2019-05-05T13:29:15.855Z,51.72
2019-05-05T13:31:47.156Z,53.21
2019-05-05T13:34:18.466Z,53.61
2019-05-05T13:36:49.769Z,52.57
2019-05-05T13:39:21.063Z,53.08
2019-05-05T13:41:53.956Z,53.31
2019-05-05T13:44:42.933Z,54.06
2019-05-05T13:47:14.225Z,54.09
2019-05-05T13:49:45.481Z,52.59
2019-05-05T13:52:16.793Z,50.79
2019-05-05T13:54:48.114Z,51.08
2019-05-05T13:57:19.471Z,48.19
2019-05-05T13:59:50.775Z,46.90
2019-05-05T14:02:24.267Z,44.51
2019-05-05T14:04:55.082Z,42.30
2019-05-05T14:07:26.381Z,42.95
2019-05-05T14:09:59.073Z,41.45
2019-05-05T14:12:30.460Z,39.66
2019-05-05T14:15:03.949Z,39.80
2019-05-05T14:17:34.753Z,40.35
2019-05-05T14:20:11.715Z,38.96
2019-05-05T14:22:39.383Z,39.08
2019-05-05T14:25:16.048Z,38.76
2019-05-05T14:27:47.317Z,37.41
2019-05-05T14:30:54.644Z,38.02
2019-05-05T14:33:28.970Z,39.31
2019-05-05T14:36:07.266Z,40.57
2019-05-05T14:38:44.696Z,40.17
2019-05-05T14:41:16.019Z,38.83
2019-05-05T14:43:47.317Z,40.00
2019-05-05T14:46:18.637Z,43.12
2019-05-05T14:48:53.636Z,45.62
2019-05-05T14:51:24.982Z,47.36
2019-05-05T14:53:56.250Z,48.96
2019-05-05T14:56:36.238Z,49.89
2019-05-05T14:59:00.548Z,51.53
2019-05-05T15:01:34.254Z,51.93
2019-05-05T15:04:04.876Z,53.21
2019-05-05T15:06:44.120Z,52.23
2019-05-05T15:09:46.263Z,52.32
2019-05-05T15:12:30.087Z,52.21
2019-05-05T15:15:03.792Z,52.24
2019-05-05T15:17:34.422Z,52.24
2019-05-05T15:20:06.780Z,50.99
2019-05-05T15:22:38.109Z,51.37
2019-05-05T15:25:09.394Z,50.82
2019-05-05T15:27:40.775Z,50.38
2019-05-05T15:30:12.711Z,48.60
2019-05-05T15:32:44.011Z,45.75
2019-05-05T15:35:15.409Z,44.95
2019-05-05T15:37:46.773Z,44.62
2019-05-05T15:40:18.224Z,42.43
2019-05-05T15:42:49.561Z,42.14
2019-05-05T15:45:20.912Z,40.87
2019-05-05T15:47:53.909Z,41.13
2019-05-05T15:50:25.361Z,40.43
2019-05-05T15:52:56.627Z,41.44
2019-05-05T15:55:27.900Z,41.37
2019-05-05T15:57:59.236Z,42.33
2019-05-05T16:00:30.562Z,42.50
2019-05-05T16:03:04.139Z,43.09
2019-05-05T16:05:34.832Z,43.14
2019-05-05T16:08:06.151Z,43.67
2019-05-05T16:10:37.478Z,43.28
2019-05-05T16:13:08.773Z,43.25
2019-05-05T16:16:02.021Z,43.07
2019-05-05T16:19:04.922Z,43.88
2019-05-05T16:21:54.358Z,44.28
2019-05-05T16:24:36.575Z,45.20
2019-05-05T16:27:18.675Z,44.63
2019-05-05T16:29:39.992Z,45.27
2019-05-05T16:32:21.203Z,45.76
2019-05-05T16:34:44.312Z,45.39
2019-05-05T16:37:15.652Z,45.54
2019-05-05T16:39:46.974Z,46.08
2019-05-05T16:42:18.306Z,45.39
2019-05-05T16:44:49.605Z,46.58
2019-05-05T16:47:20.885Z,46.39
2019-05-05T16:49:53.804Z,45.96
2019-05-05T16:52:38.984Z,45.70
2019-05-05T16:55:16.586Z,45.29
2019-05-05T16:57:47.934Z,45.57
2019-05-05T17:00:21.539Z,45.60
2019-05-05T17:02:53.694Z,44.98
2019-05-05T17:05:25.058Z,44.90
2019-05-05T17:07:58.474Z,43.95
2019-05-05T17:10:29.355Z,42.51
2019-05-05T17:13:04.836Z,40.71
2019-05-05T17:15:53.772Z,41.21
2019-05-05T17:18:54.100Z,41.35
2019-05-05T17:21:29.971Z,42.20
2019-05-05T17:24:01.258Z,42.67
2019-05-05T17:26:32.539Z,43.46
2019-05-05T17:29:03.984Z,43.89
2019-05-05T17:31:35.317Z,44.70
2019-05-05T17:34:06.605Z,45.43
2019-05-05T17:36:37.938Z,46.16
2019-05-05T17:39:09.565Z,46.21
2019-05-05T17:41:58.546Z,47.08
2019-05-05T17:44:48.738Z,47.17
2019-05-05T17:47:27.881Z,47.71
2019-05-05T17:50:18.041Z,48.43
2019-05-05T17:52:56.847Z,48.72
2019-05-05T17:55:29.361Z,49.42
2019-05-05T17:58:02.490Z,50.15
2019-05-05T18:00:37.433Z,50.01
2019-05-05T18:03:08.692Z,50.58
2019-05-05T18:05:57.546Z,50.85
2019-05-05T18:08:44.634Z,50.87
2019-05-05T18:11:20.932Z,51.30
2019-05-05T18:13:56.059Z,51.85
2019-05-05T18:16:27.499Z,52.23
2019-05-05T18:18:58.841Z,51.71
2019-05-05T18:21:32.226Z,51.66
2019-05-05T18:24:03.170Z,51.82
2019-05-05T18:26:34.467Z,51.95
2019-05-05T18:29:05.775Z,52.18
2019-05-05T18:31:37.106Z,52.96
2019-05-05T18:34:08.427Z,53.07
2019-05-05T18:36:39.775Z,52.93
2019-05-05T18:39:11.282Z,52.76
2019-05-05T18:41:51.281Z,53.03
2019-05-05T18:44:27.153Z,52.69
2019-05-05T18:47:18.694Z,53.79
2019-05-05T18:49:50.304Z,53.13
2019-05-05T18:52:21.587Z,53.30
2019-05-05T18:54:54.524Z,53.26
2019-05-05T18:57:25.941Z,53.66
2019-05-05T18:59:57.273Z,53.61
2019-05-05T19:02:56.346Z,53.54
2019-05-05T19:05:34.521Z,53.72
2019-05-05T19:08:16.622Z,53.68
2019-05-05T19:10:47.945Z,53.99
2019-05-05T19:13:19.281Z,54.43
2019-05-05T19:15:50.601Z,54.06
2019-05-05T19:18:21.973Z,54.51
2019-05-05T19:20:58.381Z,54.76
2019-05-05T19:23:29.726Z,54.92
2019-05-05T19:26:01.014Z,55.19
2019-05-05T19:28:42.055Z,55.23
2019-05-05T19:31:05.358Z,55.26
2019-05-05T19:33:36.657Z,55.25
2019-05-05T19:36:07.975Z,55.84
2019-05-05T19:38:39.294Z,56.08
2019-05-05T19:41:10.569Z,56.06
2019-05-05T19:43:54.902Z,56.27
2019-05-05T19:46:34.654Z,56.37
2019-05-05T19:49:15.593Z,56.50
2019-05-05T19:51:47.447Z,56.89
2019-05-05T19:54:18.806Z,57.16
2019-05-05T19:56:50.326Z,57.85
2019-05-05T19:59:21.645Z,57.33
2019-05-05T20:01:54.005Z,57.73
2019-05-05T20:04:25.467Z,57.65
2019-05-05T20:06:56.845Z,57.85
2019-05-05T20:09:28.170Z,58.89
2019-05-05T20:11:59.468Z,58.70
2019-05-05T20:14:30.764Z,58.20
2019-05-05T20:17:25.580Z,57.81
2019-05-05T20:19:56.921Z,58.12
2019-05-05T20:22:28.215Z,58.39
2019-05-05T20:24:59.569Z,58.55
2019-05-05T20:27:30.887Z,58.99
2019-05-05T20:30:06.199Z,58.99
2019-05-05T20:32:44.461Z,59.00
2019-05-05T20:35:29.814Z,58.97
2019-05-05T20:38:08.636Z,59.19
2019-05-05T20:40:41.614Z,59.54
2019-05-05T20:43:14.386Z,60.02
2019-05-05T20:45:45.753Z,60.38
2019-05-05T20:48:17.082Z,60.38
2019-05-05T20:50:48.384Z,60.72
2019-05-05T20:53:19.691Z,60.94
2019-05-05T20:55:51.017Z,61.15
2019-05-05T20:58:23.886Z,61.52
2019-05-05T21:00:55.297Z,61.79
2019-05-05T21:03:26.575Z,61.96
2019-05-05T21:05:58.060Z,62.18
2019-05-05T21:08:29.712Z,62.51
2019-05-05T21:11:00.992Z,62.90
2019-05-05T21:13:34.141Z,63.03
2019-05-05T21:16:05.242Z,63.33
2019-05-05T21:18:36.678Z,63.72
2019-05-05T21:21:10.734Z,63.84
2019-05-05T21:23:48.148Z,64.08
2019-05-05T21:26:41.454Z,64.42
2019-05-05T21:29:14.051Z,64.50
2019-05-05T21:31:45.424Z,64.69
2019-05-05T21:34:16.680Z,64.82
2019-05-05T21:36:47.947Z,64.94
2019-05-05T21:39:19.368Z,65.30
2019-05-05T21:41:50.639Z,65.70
2019-05-05T21:44:21.937Z,65.79
2019-05-05T21:46:53.792Z,66.06
2019-05-05T21:49:25.107Z,66.10
2019-05-05T21:52:08.394Z,66.12
2019-05-05T21:54:52.542Z,66.13
2019-05-05T21:57:51.595Z,66.38
2019-05-05T22:00:40.467Z,66.69
2019-05-05T22:03:14.007Z,66.91
2019-05-05T22:05:45.287Z,67.00
2019-05-05T22:08:16.607Z,67.08
2019-05-05T22:10:47.927Z,67.17
2019-05-05T22:13:19.227Z,67.33
2019-05-05T22:15:50.521Z,67.35
2019-05-05T22:18:21.801Z,67.36
2019-05-05T22:20:59.438Z,67.61
2019-05-05T22:23:30.747Z,67.65
2019-05-05T22:26:04.164Z,68.04
2019-05-05T22:28:35.073Z,68.11
2019-05-05T22:31:07.182Z,68.14
2019-05-05T22:33:38.485Z,68.37
2019-05-05T22:36:09.768Z,68.54
2019-05-05T22:38:41.065Z,68.77
2019-05-05T22:41:13.284Z,68.81
2019-05-05T22:43:45.367Z,68.72
2019-05-05T22:46:16.659Z,68.62
2019-05-05T22:48:47.933Z,68.61
2019-05-05T22:51:19.235Z,68.63
2019-05-05T22:53:50.560Z,68.79
2019-05-05T22:56:23.999Z,68.87
2019-05-05T22:58:54.830Z,69.01
2019-05-05T23:01:26.123Z,69.04
2019-05-05T23:04:14.768Z,69.10
2019-05-05T23:06:47.818Z,69.12
2019-05-05T23:09:19.124Z,69.19
2019-05-05T23:11:50.386Z,69.24
2019-05-05T23:14:30.499Z,69.50
2019-05-05T23:17:27.154Z,69.90
2019-05-05T23:20:13.475Z,70.25
2019-05-05T23:23:01.198Z,70.60
2019-05-05T23:25:37.010Z,71.17
2019-05-05T23:28:08.318Z,71.45
2019-05-05T23:30:41.988Z,71.76
2019-05-05T23:33:14.286Z,72.43
2019-05-05T23:35:45.641Z,72.46
2019-05-05T23:38:16.928Z,72.24
2019-05-05T23:40:48.213Z,72.29
2019-05-05T23:43:19.460Z,72.64
2019-05-05T23:45:50.807Z,72.98
2019-05-05T23:48:24.030Z,73.07
2019-05-05T23:50:55.055Z,73.37
2019-05-05T23:53:26.334Z,73.58
2019-05-05T23:55:57.588Z,73.56
2019-05-05T23:58:28.887Z,73.55
